createdAt,value
2018-10-18T00:12:16.532Z,27.3
2018-10-18T00:18:10.484Z,27.6
2018-10-18T00:21:07.315Z,27.6
2018-10-18T00:24:04.399Z,27.7
2018-10-18T00:29:58.351Z,27.7
2018-10-18T00:32:55.317Z,27.6
2018-10-18T00:35:52.359Z,27.6
2018-10-18T00:41:46.339Z,27.4
2018-10-18T00:44:43.408Z,27.3
2018-10-18T00:47:40.397Z,27.2
2018-10-18T00:50:37.393Z,27.2
2018-10-18T00:53:34.446Z,27.2
2018-10-18T00:56:31.369Z,27.1
2018-10-18T00:59:28.426Z,27
2018-10-18T01:02:25.308Z,27
2018-10-18T01:05:22.349Z,27
2018-10-18T01:08:19.302Z,27
2018-10-18T01:11:16.430Z,27
2018-10-18T01:14:13.895Z,27
2018-10-18T01:17:10.582Z,27.1
2018-10-18T01:20:07.390Z,27.2
2018-10-18T01:23:04.379Z,27.2
2018-10-18T01:26:01.357Z,27.3
2018-10-18T01:28:58.389Z,27.4
2018-10-18T01:31:55.425Z,27.4
2018-10-18T01:34:52.467Z,27.6
2018-10-18T01:37:49.467Z,27.8
2018-10-18T01:43:43.548Z,27.8
2018-10-18T01:46:40.374Z,27.9
2018-10-18T01:49:37.497Z,28
2018-10-18T01:52:34.490Z,28
2018-10-18T01:58:28.462Z,28
2018-10-18T02:07:19.722Z,28
2018-10-18T02:13:13.649Z,28.1
2018-10-18T02:16:10.422Z,28.2
2018-10-18T02:19:07.620Z,28.2
2018-10-18T02:22:04.423Z,28.3
2018-10-18T02:27:58.475Z,28.4
2018-10-18T02:30:55.496Z,28.4
2018-10-18T02:36:49.533Z,28.8
2018-10-18T02:39:46.494Z,28.9
2018-10-18T02:42:43.633Z,29
2018-10-18T02:45:40.430Z,29
2018-10-18T02:48:37.466Z,29.2
2018-10-18T02:51:34.456Z,29.3
2018-10-18T02:54:31.498Z,29.4
2018-10-18T02:57:28.440Z,29.6
2018-10-18T03:00:25.580Z,29.7
2018-10-18T03:03:22.573Z,29.8
2018-10-18T03:06:19.725Z,29.6
2018-10-18T03:09:17.003Z,29.5
2018-10-18T03:12:13.721Z,29.3
2018-10-18T03:18:07.619Z,29.2
2018-10-18T03:21:04.538Z,29.1
2018-10-18T03:26:58.569Z,29
2018-10-18T03:29:55.574Z,29
2018-10-18T03:32:52.587Z,29
2018-10-18T03:35:49.546Z,29.2
2018-10-18T03:47:37.654Z,30
2018-10-18T03:50:34.616Z,30.1
2018-10-18T03:53:31.665Z,30.2
2018-10-18T03:56:28.698Z,30.2
2018-10-18T03:59:25.752Z,30.2
2018-10-18T04:02:22.626Z,30.2
2018-10-18T04:05:19.652Z,30.2
2018-10-18T04:08:16.568Z,30.2
2018-10-18T04:11:13.784Z,30.2
2018-10-18T04:14:10.613Z,30.1
2018-10-18T04:20:04.805Z,29.9
2018-10-18T04:23:01.679Z,29.9
2018-10-18T04:25:58.719Z,29.8
2018-10-18T04:28:55.649Z,29.8
2018-10-18T04:31:52.761Z,29.9
2018-10-18T04:34:49.586Z,29.9
2018-10-18T04:37:46.664Z,29.9
2018-10-18T04:40:43.704Z,29.9
2018-10-18T04:46:37.799Z,30.1
2018-10-18T04:49:34.691Z,30.3
2018-10-18T04:52:31.800Z,30.6
2018-10-18T04:55:28.683Z,30.8
2018-10-18T04:58:26.197Z,31
2018-10-18T05:01:22.874Z,31.2
2018-10-18T05:04:19.828Z,31.3
2018-10-18T05:07:16.769Z,31.5
2018-10-18T05:13:11.063Z,31.5
2018-10-18T05:16:07.882Z,31.6
2018-10-18T05:19:04.853Z,31.7
2018-10-18T05:24:58.908Z,32
2018-10-18T05:27:55.734Z,32
2018-10-18T05:30:52.812Z,32.1
2018-10-18T05:33:49.686Z,32.2
2018-10-18T05:36:46.970Z,32.2
2018-10-18T05:39:43.749Z,32.3
2018-10-18T05:42:41.147Z,32.4
2018-10-18T05:45:37.773Z,32.4
2018-10-18T05:48:34.913Z,32.5
2018-10-18T05:51:31.776Z,32.5
2018-10-18T05:54:28.803Z,32.5
2018-10-18T05:57:25.731Z,32.5
2018-10-18T06:00:22.914Z,32.7
2018-10-18T06:03:19.811Z,32.8
2018-10-18T06:06:16.851Z,32.9
2018-10-18T06:09:13.802Z,32.8
2018-10-18T06:12:11.209Z,32.9
2018-10-18T06:15:08.012Z,32.9
2018-10-18T06:18:05.252Z,32.9
2018-10-18T06:21:01.842Z,33
2018-10-18T06:23:58.891Z,33
2018-10-18T06:26:55.797Z,33
2018-10-18T06:29:52.911Z,33
2018-10-18T06:32:49.901Z,33
2018-10-18T06:35:46.895Z,33
2018-10-18T06:38:43.878Z,33.1
2018-10-18T06:41:41.086Z,33.1
2018-10-18T06:44:37.898Z,33.2
2018-10-18T06:47:35.071Z,33.2
2018-10-18T06:53:28.946Z,33.2
2018-10-18T06:59:22.958Z,33.3
2018-10-18T07:02:19.890Z,33.3
2018-10-18T07:05:16.886Z,33.3
2018-10-18T07:08:13.866Z,33.3
2018-10-18T07:11:11.200Z,33.4
2018-10-18T07:17:04.908Z,33.4
2018-10-18T07:20:01.868Z,33.4
2018-10-18T07:25:56.245Z,33.4
2018-10-18T07:31:50.023Z,33.4
2018-10-18T07:37:44.018Z,33.4
2018-10-18T07:40:40.960Z,33.4
2018-10-18T07:43:38.070Z,33.4
2018-10-18T07:46:34.977Z,33.4
2018-10-18T07:49:32.129Z,33.4
2018-10-18T07:52:28.915Z,33.4
2018-10-18T07:55:26.160Z,33.5
2018-10-18T07:58:23.017Z,33.5
2018-10-18T08:04:17.070Z,33.5
2018-10-18T08:07:14.058Z,33.5
2018-10-18T08:10:11.030Z,33.4
2018-10-18T08:13:08.247Z,33.4
2018-10-18T08:16:05.766Z,33.4
2018-10-18T08:19:02.116Z,33.4
2018-10-18T08:21:59.093Z,33.4
2018-10-18T08:24:56.060Z,33.4
2018-10-18T08:27:53.115Z,33.3
2018-10-18T08:30:49.971Z,33.3
2018-10-18T08:33:47.032Z,33.3
2018-10-18T08:36:43.986Z,33.3
2018-10-18T08:39:41.219Z,33.4
2018-10-18T08:45:35.098Z,33.3
2018-10-18T08:48:32.007Z,33.2
2018-10-18T08:51:29.264Z,33.2
2018-10-18T08:54:26.036Z,33.2
2018-10-18T08:57:23.139Z,33.2
2018-10-18T09:06:14.168Z,33.2
2018-10-18T09:09:11.231Z,33.2
2018-10-18T09:12:08.198Z,33.1
2018-10-18T09:15:05.115Z,33.1
2018-10-18T09:18:02.213Z,33.1
2018-10-18T09:20:59.043Z,33.1
2018-10-18T09:23:56.757Z,33
2018-10-18T09:26:53.079Z,33
2018-10-18T09:29:50.256Z,32.8
2018-10-18T09:32:47.101Z,32.8
2018-10-18T09:35:44.139Z,32.8
2018-10-18T09:38:41.263Z,32.7
2018-10-18T09:41:38.261Z,32.6
2018-10-18T09:44:35.576Z,32.4
2018-10-18T09:47:32.265Z,32.3
2018-10-18T09:50:29.159Z,32.2
2018-10-18T09:53:26.680Z,32.1
2018-10-18T09:56:23.173Z,32
2018-10-18T09:59:20.154Z,32
2018-10-18T10:02:17.100Z,31.9
2018-10-18T10:05:14.197Z,31.9
2018-10-18T10:08:11.202Z,31.8
2018-10-18T10:11:08.264Z,31.8
2018-10-18T10:14:05.170Z,31.7
2018-10-18T10:17:02.230Z,31.7
2018-10-18T10:19:59.165Z,31.6
2018-10-18T10:28:50.366Z,31.6
2018-10-18T10:34:44.427Z,31.5
2018-10-18T10:37:41.296Z,31.4
2018-10-18T10:40:38.406Z,31.4
2018-10-18T10:46:32.312Z,31.3
2018-10-18T10:52:26.251Z,31.1
2018-10-18T10:55:23.197Z,31.1
2018-10-18T10:58:20.262Z,31
2018-10-18T11:04:14.522Z,30.9
2018-10-18T11:27:50.462Z,30.4
2018-10-18T11:36:41.372Z,30.3
2018-10-18T11:39:38.301Z,30.2
2018-10-18T11:48:29.433Z,30.2
2018-10-18T11:51:26.850Z,30.2
2018-10-18T12:00:17.333Z,30.1
2018-10-18T12:03:14.379Z,30
2018-10-18T12:09:08.421Z,30
2018-10-18T12:12:05.350Z,30
2018-10-18T12:15:02.545Z,30
2018-10-18T12:17:59.336Z,29.9
2018-10-18T12:20:56.400Z,29.9
2018-10-18T12:23:53.405Z,29.8
2018-10-18T12:29:47.441Z,29.8
2018-10-18T12:32:44.340Z,29.8
2018-10-18T12:35:41.403Z,29.8
2018-10-18T12:44:32.501Z,29.8
2018-10-18T12:47:29.436Z,29.7
2018-10-18T12:56:20.464Z,29.7
2018-10-18T13:02:14.642Z,29.6
2018-10-18T13:05:11.454Z,29.6
2018-10-18T13:08:08.515Z,29.6
2018-10-18T13:11:05.625Z,29.6
2018-10-18T13:14:02.579Z,29.6
2018-10-18T13:16:59.545Z,29.5
2018-10-18T13:22:53.521Z,29.4
2018-10-18T13:31:44.495Z,29.3
2018-10-18T13:40:35.557Z,29.2
2018-10-18T13:46:29.642Z,29.2
2018-10-18T13:52:23.552Z,29.2
2018-10-18T13:58:17.530Z,29.2
2018-10-18T14:10:05.789Z,29
2018-10-18T14:13:02.588Z,29
2018-10-18T14:24:51.650Z,28.9
2018-10-18T14:27:47.566Z,28.8
2018-10-18T14:30:44.820Z,28.8
2018-10-18T14:33:41.530Z,28.8
2018-10-18T14:36:38.595Z,28.8
2018-10-18T14:39:35.599Z,28.8
2018-10-18T14:42:32.561Z,28.8
2018-10-18T14:51:23.652Z,28.7
2018-10-18T15:00:14.719Z,28.7
2018-10-18T15:09:05.705Z,28.6
2018-10-18T15:12:02.533Z,28.6
2018-10-18T15:14:59.642Z,28.6
2018-10-18T15:17:56.594Z,28.6
2018-10-18T15:20:53.632Z,28.6
2018-10-18T15:26:47.882Z,28.6
2018-10-18T15:32:41.792Z,28.5
2018-10-18T15:41:32.677Z,28.4
2018-10-18T15:44:29.688Z,28.4
2018-10-18T15:47:26.943Z,28.4
2018-10-18T15:50:23.722Z,28.4
2018-10-18T15:53:20.895Z,28.4
2018-10-18T15:56:17.653Z,28.4
2018-10-18T15:59:14.871Z,28.3
2018-10-18T16:05:08.838Z,28.3
2018-10-18T16:08:05.751Z,28.3
2018-10-18T16:13:59.919Z,28.2
2018-10-18T16:19:53.764Z,28.2
2018-10-18T16:22:50.678Z,28.1
2018-10-18T16:28:44.800Z,28.1
2018-10-18T16:31:41.772Z,28.2
2018-10-18T16:34:38.798Z,28.2
2018-10-18T16:37:35.796Z,28.1
2018-10-18T16:40:33.042Z,28.1
2018-10-18T16:43:30.217Z,28.1
2018-10-18T16:46:26.866Z,28.1
2018-10-18T16:49:23.776Z,28
2018-10-18T16:52:20.793Z,28
2018-10-18T16:55:17.749Z,28.1
2018-10-18T17:04:09.081Z,28
2018-10-18T17:10:02.870Z,28.1
2018-10-18T17:15:57.246Z,28.2
2018-10-18T17:18:53.884Z,28.2
2018-10-18T17:21:50.889Z,28.2
2018-10-18T17:24:47.870Z,28.2
2018-10-18T17:27:44.955Z,28.2
2018-10-18T17:33:39.022Z,28.3
2018-10-18T17:36:35.853Z,28.4
2018-10-18T17:39:32.831Z,28.4
2018-10-18T17:42:30.034Z,28.2
2018-10-18T17:57:14.947Z,27.7
2018-10-18T18:00:11.909Z,27.5
2018-10-18T18:03:08.950Z,27.2
2018-10-18T18:17:54.015Z,26.6
2018-10-18T18:20:51.358Z,26.6
2018-10-18T18:23:47.965Z,26.7
2018-10-18T18:29:41.945Z,26.7
2018-10-18T18:32:38.860Z,26.7
2018-10-18T18:35:36.009Z,26.7
2018-10-18T18:41:30.034Z,26.8
2018-10-18T18:56:15.383Z,26.7
2018-10-18T18:59:11.941Z,26.6
2018-10-18T19:05:05.989Z,26.5
2018-10-18T19:08:02.882Z,26.4
2018-10-18T19:16:54.427Z,26.3
2018-10-18T19:19:50.997Z,26.2
2018-10-18T19:22:48.171Z,26.2
2018-10-18T19:31:39.063Z,26
2018-10-18T19:34:36.037Z,26
2018-10-18T19:43:27.142Z,25.9
2018-10-18T19:49:21.100Z,25.8
2018-10-18T19:55:15.119Z,25.8
2018-10-18T19:58:12.127Z,25.8
2018-10-18T20:10:00.102Z,25.6
2018-10-18T20:12:57.303Z,25.7
2018-10-18T20:15:54.096Z,25.7
2018-10-18T20:21:48.089Z,25.6
2018-10-18T20:24:45.257Z,25.6
2018-10-18T20:27:42.165Z,25.6
2018-10-18T20:30:39.144Z,25.6
2018-10-18T20:33:36.139Z,25.6
2018-10-18T20:36:33.121Z,25.5
2018-10-18T20:42:27.503Z,25.5
2018-10-18T20:45:24.170Z,25.4
2018-10-18T20:51:18.233Z,25.5
2018-10-18T20:54:15.238Z,25.4
2018-10-18T20:57:12.299Z,25.4
2018-10-18T21:03:06.259Z,25.4
2018-10-18T21:06:03.247Z,25.4
2018-10-18T21:09:00.280Z,25.4
2018-10-18T21:11:57.250Z,25.4
2018-10-18T21:14:54.342Z,25.4
2018-10-18T21:29:39.189Z,25.5
2018-10-18T21:32:36.228Z,25.6
2018-10-18T21:35:33.226Z,25.5
2018-10-18T21:38:30.223Z,25.6
2018-10-18T21:41:27.405Z,25.6
2018-10-18T21:44:24.175Z,25.6
2018-10-18T21:47:21.293Z,25.6
2018-10-18T21:53:15.243Z,25.7
2018-10-18T21:56:12.205Z,25.7
2018-10-18T21:59:09.337Z,25.7
2018-10-18T22:08:00.323Z,25.6
2018-10-18T22:10:57.305Z,25.7
2018-10-18T22:13:54.252Z,25.7
2018-10-18T22:16:51.182Z,25.7
2018-10-18T22:28:46.522Z,25.8
2018-10-18T22:31:36.354Z,25.8
2018-10-18T22:34:33.387Z,25.8
2018-10-18T22:43:24.497Z,25.8
2018-10-18T22:52:15.279Z,25.7
2018-10-18T22:55:12.234Z,25.8
2018-10-18T22:58:09.261Z,25.8
2018-10-18T23:12:54.320Z,25.8
2018-10-18T23:18:48.352Z,25.8
2018-10-18T23:24:42.404Z,25.8
2018-10-18T23:27:39.612Z,25.9
2018-10-18T23:33:33.435Z,25.8
2018-10-18T23:36:30.320Z,25.9
2018-10-18T23:39:27.431Z,25.9
2018-10-18T23:48:18.531Z,26
2018-10-18T23:51:15.434Z,26
2018-10-18T23:54:12.411Z,26
2018-10-18T23:57:09.514Z,26
